Time;durP1;ratioP1;P1;durP2;ratioP2;P2;SDS_P1;SDS_P2;PMS_P1;PMS_P2;Temp;Humidity;BMP_temperature;BMP_pressure;BME280_temperature;BME280_humidity;BME280_pressure;Samples;Min_cycle;Max_cycle;Signal;HPM_P1;HPM_P2
2022/11/02 00:01:15;;;;;;;16.25;8.28;;;;;;;;;;1659811;86;21065;-64
2022/11/02 00:03:42;;;;;;;18.37;8.98;;;;;;;;;;1657107;86;21104;-64
2022/11/02 00:06:08;;;;;;;15.85;8.40;;;;;;;;;;1659428;86;21109;-64
2022/11/02 00:08:34;;;;;;;17.90;8.05;;;;;;;;;;1660190;85;21604;-64
2022/11/02 00:11:00;;;;;;;21.27;9.60;;;;;;;;;;1660035;85;21037;-63
2022/11/02 00:13:26;;;;;;;17.90;7.90;;;;;;;;;;1659567;86;21065;-64
2022/11/02 00:15:53;;;;;;;16.12;8.28;;;;;;;;;;1658469;85;21606;-63
2022/11/02 00:18:19;;;;;;;16.40;8.85;;;;;;;;;;1658829;85;21042;-63
2022/11/02 00:20:46;;;;;;;20.25;9.10;;;;;;;;;;1653178;86;21105;-63
2022/11/02 00:23:12;;;;;;;19.02;8.33;;;;;;;;;;1651317;86;22068;-63
2022/11/02 00:25:46;;;;;;;20.00;8.60;;;;;;;;;;1659808;86;21089;-64
2022/11/02 00:28:13;;;;;;;15.38;7.55;;;;;;;;;;1659613;85;21140;-64
2022/11/02 00:30:40;;;;;;;15.80;8.25;;;;;;;;;;1650326;85;21067;-64
2022/11/02 00:33:08;;;;;;;16.00;8.10;;;;;;;;;;1678004;85;21083;-64
2022/11/02 00:35:35;;;;;;;14.90;8.23;;;;;;;;;;1662337;86;21632;-64
2022/11/02 00:38:02;;;;;;;17.37;8.60;;;;;;;;;;1653404;85;21091;-64
2022/11/02 00:40:28;;;;;;;17.30;8.18;;;;;;;;;;1714954;84;21060;-63
2022/11/02 00:42:54;;;;;;;17.85;8.08;;;;;;;;;;1715387;83;21086;-63
2022/11/02 00:45:21;;;;;;;15.38;8.18;;;;;;;;;;1671133;85;21577;-63
2022/11/02 00:47:49;;;;;;;13.03;7.20;;;;;;;;;;1678512;84;21049;-63
2022/11/02 00:50:15;;;;;;;15.83;8.63;;;;;;;;;;1678384;85;21069;-63
2022/11/02 00:52:41;;;;;;;14.25;8.20;;;;;;;;;;1678432;85;21075;-63
2022/11/02 00:55:09;;;;;;;15.13;8.38;;;;;;;;;;1707022;83;21024;-64
2022/11/02 00:57:36;;;;;;;13.45;7.72;;;;;;;;;;1715266;82;21068;-65
2022/11/02 01:00:03;;;;;;;15.88;8.38;;;;;;;;;;1724205;83;21021;-64
2022/11/02 01:02:31;;;;;;;16.95;7.85;;;;;;;;;;1722508;83;21035;-64
2022/11/02 01:04:58;;;;;;;16.40;8.53;;;;;;;;;;1678519;85;21032;-64
2022/11/02 01:07:24;;;;;;;13.68;7.85;;;;;;;;;;1725493;82;21056;-64
2022/11/02 01:09:50;;;;;;;17.62;8.83;;;;;;;;;;1715130;84;21072;-64
2022/11/02 01:12:17;;;;;;;15.00;7.53;;;;;;;;;;1712654;84;21037;-64
2022/11/02 01:14:47;;;;;;;16.67;8.50;;;;;;;;;;1714138;83;21077;-64
2022/11/02 01:17:15;;;;;;;18.05;8.28;;;;;;;;;;1713735;82;21159;-64
2022/11/02 01:19:42;;;;;;;17.35;8.53;;;;;;;;;;1713331;84;21054;-63
2022/11/02 01:22:08;;;;;;;13.95;8.08;;;;;;;;;;1708942;84;21055;-64
2022/11/02 01:24:35;;;;;;;20.48;8.40;;;;;;;;;;1678235;84;21070;-64
2022/11/02 01:27:02;;;;;;;20.00;8.33;;;;;;;;;;1659297;85;21090;-63
2022/11/02 01:29:28;;;;;;;19.62;9.23;;;;;;;;;;1709664;83;21061;-63
2022/11/02 01:31:54;;;;;;;16.02;8.13;;;;;;;;;;1724599;82;21232;-63
2022/11/02 01:34:21;;;;;;;16.30;8.65;;;;;;;;;;1738892;82;21016;-64
2022/11/02 01:36:47;;;;;;;17.55;8.98;;;;;;;;;;1731287;82;21059;-63
2022/11/02 01:39:14;;;;;;;17.67;7.97;;;;;;;;;;1737876;82;21064;-63
2022/11/02 01:41:40;;;;;;;14.83;8.28;;;;;;;;;;1737625;82;21126;-63
2022/11/02 01:44:27;;;;;;;15.03;8.25;;;;;;;;;;1722833;82;21113;-64
2022/11/02 01:46:55;;;;;;;16.60;8.63;;;;;;;;;;1720075;82;21055;-63
2022/11/02 01:49:21;;;;;;;14.55;8.05;;;;;;;;;;1690685;85;21080;-63
2022/11/02 01:51:52;;;;;;;13.53;7.83;;;;;;;;;;1659964;86;21057;-64
2022/11/02 01:54:21;;;;;;;16.07;8.33;;;;;;;;;;1659451;86;21081;-64
2022/11/02 01:56:49;;;;;;;13.70;7.60;;;;;;;;;;1677387;83;21077;-64
2022/11/02 01:59:18;;;;;;;13.93;7.25;;;;;;;;;;1662960;86;21564;-64
2022/11/02 02:04:28;;;;;;;14.43;7.62;;;;;;;;;;1701089;80;21685;-73
2022/11/02 02:06:55;;;;;;;15.32;8.10;;;;;;;;;;1694431;83;21537;-72
2022/11/02 02:09:21;;;;;;;15.75;7.95;;;;;;;;;;1727514;83;21107;-72
2022/11/02 02:11:48;;;;;;;15.13;7.85;;;;;;;;;;1712535;84;21084;-71
2022/11/02 02:14:15;;;;;;;16.85;8.00;;;;;;;;;;1644439;86;21060;-72
2022/11/02 02:17:01;;;;;;;13.88;7.60;;;;;;;;;;1692378;84;21021;-71
2022/11/02 02:19:37;;;;;;;18.75;8.23;;;;;;;;;;1709389;84;21520;-71
2022/11/02 02:22:14;;;;;;;16.00;7.80;;;;;;;;;;1724711;83;21047;-72
2022/11/02 02:24:58;;;;;;;18.92;8.63;;;;;;;;;;1715174;83;21044;-72
2022/11/02 02:27:43;;;;;;;15.50;7.92;;;;;;;;;;1695448;85;21559;-70
2022/11/02 02:30:09;;;;;;;15.58;7.55;;;;;;;;;;1670685;85;21040;-71
2022/11/02 02:32:47;;;;;;;15.88;7.58;;;;;;;;;;1679825;84;21509;-71
2022/11/02 02:35:16;;;;;;;19.15;9.03;;;;;;;;;;1677051;84;21117;-71
2022/11/02 02:37:47;;;;;;;17.37;8.03;;;;;;;;;;1679597;85;21026;-72
2022/11/02 02:40:15;;;;;;;18.37;8.83;;;;;;;;;;1648205;86;21077;-72
2022/11/02 02:42:47;;;;;;;18.23;8.73;;;;;;;;;;1679787;85;21563;-71
2022/11/02 02:45:28;;;;;;;16.52;8.53;;;;;;;;;;1679322;84;21030;-71
2022/11/02 02:48:01;;;;;;;16.77;8.38;;;;;;;;;;1681121;84;21052;-71
2022/11/02 02:50:29;;;;;;;11.18;7.12;;;;;;;;;;1705321;83;21020;-72
2022/11/02 02:52:55;;;;;;;18.50;7.72;;;;;;;;;;1685112;85;21547;-72
2022/11/02 02:55:24;;;;;;;14.40;7.78;;;;;;;;;;1666633;85;21077;-72
2022/11/02 02:57:50;;;;;;;14.95;8.40;;;;;;;;;;1682912;84;20997;-73
2022/11/02 03:00:16;;;;;;;16.42;7.92;;;;;;;;;;1699140;84;21060;-72
2022/11/02 03:02:59;;;;;;;14.50;7.95;;;;;;;;;;1686511;84;21058;-71
2022/11/02 03:05:20;;;;;;;17.02;7.97;;;;;;;;;;1697223;84;21022;-71
2022/11/02 03:07:47;;;;;;;15.48;8.25;;;;;;;;;;1681923;84;21097;-72
2022/11/02 03:10:21;;;;;;;18.37;8.83;;;;;;;;;;1721648;83;21076;-72
2022/11/02 03:12:50;;;;;;;14.45;7.58;;;;;;;;;;1701517;83;21029;-72
2022/11/02 03:15:22;;;;;;;14.25;8.05;;;;;;;;;;1704607;83;21054;-71
2022/11/02 03:17:57;;;;;;;14.93;7.83;;;;;;;;;;1692269;83;21105;-70
2022/11/02 03:20:25;;;;;;;;;;;;;;;;;;1720081;83;21013;-72
2022/11/02 03:23:12;;;;;;;18.02;9.13;;;;;;;;;;1689651;85;20143;-72
2022/11/02 03:25:46;;;;;;;16.65;8.28;;;;;;;;;;1653708;84;21572;-72
2022/11/02 03:28:18;;;;;;;15.90;8.08;;;;;;;;;;1665782;86;21056;-70
2022/11/02 03:30:45;;;;;;;16.27;8.38;;;;;;;;;;1650664;87;21097;-72
2022/11/02 03:35:34;;;;;;;15.75;8.45;;;;;;;;;;1797619;78;22579;-72
2022/11/02 03:38:03;;;;;;;13.28;7.53;;;;;;;;;;1761514;81;21024;-72
2022/11/02 03:40:33;;;;;;;16.52;8.20;;;;;;;;;;1760804;81;21562;-73
2022/11/02 03:42:59;;;;;;;15.48;8.13;;;;;;;;;;1782830;80;20964;-71
2022/11/02 03:45:28;;;;;;;11.85;7.33;;;;;;;;;;1792094;80;21507;-72
2022/11/02 03:47:56;;;;;;;17.10;7.40;;;;;;;;;;1791134;80;21048;-71
2022/11/02 03:50:23;;;;;;;14.13;8.05;;;;;;;;;;1728712;81;21059;-71
2022/11/02 03:52:52;;;;;;;13.72;8.08;;;;;;;;;;1727815;83;21023;-72
2022/11/02 03:55:19;;;;;;;13.72;8.28;;;;;;;;;;1749611;81;21024;-72
2022/11/02 03:57:47;;;;;;;18.57;8.73;;;;;;;;;;1738797;81;21586;-71
2022/11/02 04:00:20;;;;;;;18.40;8.48;;;;;;;;;;1757398;81;21057;-72
2022/11/02 04:02:56;;;;;;;13.62;7.80;;;;;;;;;;1752707;81;21032;-71
2022/11/02 04:05:30;;;;;;;14.80;8.30;;;;;;;;;;1738621;80;21009;-72
2022/11/02 04:16:15;;;;;;;13.90;8.15;;;;;;;;;;1648689;85;21490;-71
2022/11/02 04:21:28;;;;;;;14.63;8.60;;;;;;;;;;1650693;87;21112;-71
2022/11/02 04:26:42;;;;;;;18.00;8.93;;;;;;;;;;1680381;85;21037;-71
2022/11/02 04:29:08;;;;;;;19.70;8.13;;;;;;;;;;1661979;85;21031;-71
2022/11/02 04:31:36;;;;;;;19.55;7.95;;;;;;;;;;1666040;85;21572;-71
2022/11/02 04:34:02;;;;;;;15.98;8.30;;;;;;;;;;1660873;86;21046;-70
2022/11/02 04:36:29;;;;;;;15.08;7.67;;;;;;;;;;1661176;85;21058;-72
2022/11/02 04:38:55;;;;;;;16.30;8.55;;;;;;;;;;1678180;85;21047;-71
2022/11/02 04:41:41;;;;;;;16.23;7.78;;;;;;;;;;1679929;84;21032;-71
2022/11/02 04:44:15;;;;;;;19.73;8.93;;;;;;;;;;1677877;84;21045;-73
2022/11/02 04:46:44;;;;;;;25.35;10.60;;;;;;;;;;1703941;84;21090;-71
2022/11/02 04:49:13;;;;;;;23.85;9.80;;;;;;;;;;1705874;84;21059;-71
2022/11/02 04:51:41;;;;;;;27.25;10.43;;;;;;;;;;1676393;85;21032;-71
2022/11/02 04:54:10;;;;;;;42.17;12.15;;;;;;;;;;1751230;81;21520;-71
2022/11/02 04:56:37;;;;;;;47.15;13.08;;;;;;;;;;1732345;82;21501;-71
2022/11/02 04:59:05;;;;;;;29.10;10.55;;;;;;;;;;1741459;82;21061;-71
2022/11/02 05:01:33;;;;;;;24.00;9.63;;;;;;;;;;1738667;82;21108;-70
2022/11/02 05:04:00;;;;;;;21.17;9.60;;;;;;;;;;1738344;81;21057;-71
2022/11/02 05:06:27;;;;;;;18.42;9.60;;;;;;;;;;1714837;84;21560;-72
2022/11/02 05:08:55;;;;;;;19.37;9.93;;;;;;;;;;1680526;85;21025;-71
2022/11/02 05:11:23;;;;;;;17.82;9.30;;;;;;;;;;1683956;84;21084;-71
2022/11/02 05:13:50;;;;;;;19.32;9.08;;;;;;;;;;1703194;84;21081;-70
2022/11/02 05:16:16;;;;;;;20.20;8.93;;;;;;;;;;1648559;87;21106;-70
2022/11/02 05:18:43;;;;;;;22.52;10.48;;;;;;;;;;1680819;84;20982;-70
2022/11/02 05:21:10;;;;;;;22.30;9.35;;;;;;;;;;1676909;85;21099;-71
2022/11/02 05:23:38;;;;;;;19.52;9.25;;;;;;;;;;1675284;84;21081;-72
2022/11/02 05:26:07;;;;;;;17.62;9.38;;;;;;;;;;1739978;82;20975;-73
2022/11/02 05:28:34;;;;;;;18.85;8.43;;;;;;;;;;1721503;82;21076;-72
2022/11/02 05:31:01;;;;;;;22.30;10.05;;;;;;;;;;1734001;82;21014;-72
2022/11/02 05:33:29;;;;;;;20.30;9.50;;;;;;;;;;1719530;82;20966;-71
2022/11/02 05:35:59;;;;;;;18.37;9.25;;;;;;;;;;1710749;82;21529;-72
2022/11/02 05:38:26;;;;;;;28.15;11.15;;;;;;;;;;1754002;81;21005;-73
2022/11/02 05:40:53;;;;;;;21.20;9.78;;;;;;;;;;1746180;82;21081;-72
2022/11/02 05:43:20;;;;;;;29.32;11.83;;;;;;;;;;1753797;81;20977;-73
2022/11/02 05:45:53;;;;;;;26.15;11.78;;;;;;;;;;1748939;82;20970;-72
2022/11/02 05:48:19;;;;;;;23.38;11.90;;;;;;;;;;1739813;82;21001;-72
2022/11/02 05:50:47;;;;;;;28.85;12.25;;;;;;;;;;1746487;80;21033;-72
2022/11/02 06:20:46;;;;;;;32.10;14.75;;;;;;;;;;1798506;78;23556;-73
2022/11/02 06:23:16;;;;;;;30.23;13.55;;;;;;;;;;1759796;80;21161;-73
2022/11/02 06:25:41;;;;;;;25.68;12.37;;;;;;;;;;1760325;80;21004;-73
2022/11/02 06:28:08;;;;;;;23.30;11.95;;;;;;;;;;1766082;80;21060;-72
2022/11/02 06:30:35;;;;;;;34.25;13.15;;;;;;;;;;1761457;80;21512;-72
2022/11/02 06:33:01;;;;;;;32.80;15.00;;;;;;;;;;1761890;80;21008;-72
2022/11/02 06:35:27;;;;;;;25.30;13.55;;;;;;;;;;1763746;80;21056;-72
2022/11/02 06:37:54;;;;;;;23.80;13.15;;;;;;;;;;1761217;81;21048;-71
2022/11/02 06:40:20;;;;;;;23.92;13.38;;;;;;;;;;1762301;80;21045;-71
2022/11/02 06:42:47;;;;;;;23.38;11.90;;;;;;;;;;1758119;80;21036;-72
2022/11/02 06:45:13;;;;;;;20.23;11.22;;;;;;;;;;1760862;80;21020;-72
2022/11/02 06:47:40;;;;;;;24.67;10.20;;;;;;;;;;1761001;80;21000;-73
2022/11/02 06:50:07;;;;;;;19.85;11.10;;;;;;;;;;1748526;80;20993;-72
2022/11/02 06:52:34;;;;;;;22.02;11.97;;;;;;;;;;1772495;80;21012;-72
2022/11/02 06:55:01;;;;;;;19.62;10.18;;;;;;;;;;1759533;80;21056;-73
2022/11/02 06:57:27;;;;;;;19.30;10.58;;;;;;;;;;1757675;80;20997;-73
2022/11/02 06:59:53;;;;;;;25.48;11.80;;;;;;;;;;1758351;81;20996;-73
2022/11/02 07:02:20;;;;;;;20.05;11.28;;;;;;;;;;1761524;80;21048;-73
2022/11/02 07:04:47;;;;;;;21.35;11.15;;;;;;;;;;1756948;81;21032;-72
2022/11/02 07:07:13;;;;;;;19.98;10.72;;;;;;;;;;1757282;81;21654;-72
2022/11/02 07:09:40;;;;;;;26.57;11.78;;;;;;;;;;1757703;81;21079;-73
2022/11/02 07:12:06;;;;;;;24.72;12.10;;;;;;;;;;1730162;81;21072;-72
2022/11/02 07:14:34;;;;;;;18.23;11.15;;;;;;;;;;1740650;81;21096;-73
2022/11/02 07:17:00;;;;;;;27.20;11.33;;;;;;;;;;1725596;83;21040;-72
2022/11/02 07:19:26;;;;;;;29.42;14.20;;;;;;;;;;1727095;82;21067;-72
2022/11/02 07:21:53;;;;;;;28.07;13.43;;;;;;;;;;1731453;82;21072;-73
2022/11/02 07:24:20;;;;;;;26.75;13.18;;;;;;;;;;1726509;83;21068;-73
2022/11/02 07:26:48;;;;;;;30.92;15.90;;;;;;;;;;1725911;83;21067;-73
2022/11/02 07:29:17;;;;;;;28.52;13.35;;;;;;;;;;1727620;82;21547;-73
2022/11/02 07:31:44;;;;;;;37.38;16.70;;;;;;;;;;1746424;82;21603;-73
2022/11/02 07:34:10;;;;;;;32.45;15.72;;;;;;;;;;1729966;81;21100;-73
2022/11/02 07:36:37;;;;;;;28.98;15.88;;;;;;;;;;1725218;83;21028;-73
2022/11/02 07:39:03;;;;;;;28.20;15.10;;;;;;;;;;1725585;83;21619;-73
2022/11/02 07:41:30;;;;;;;23.20;12.13;;;;;;;;;;1745516;82;21045;-73
2022/11/02 07:43:56;;;;;;;27.52;13.72;;;;;;;;;;1732982;81;21547;-73
2022/11/02 07:46:32;;;;;;;21.30;11.53;;;;;;;;;;1725455;83;21024;-72
2022/11/02 07:48:59;;;;;;;25.88;13.20;;;;;;;;;;1736264;82;20993;-71
2022/11/02 07:51:26;;;;;;;27.35;14.13;;;;;;;;;;1730979;83;21232;-72
2022/11/02 07:53:52;;;;;;;25.97;13.40;;;;;;;;;;1728808;81;21692;-71
2022/11/02 07:56:18;;;;;;;26.07;14.93;;;;;;;;;;1729058;81;21035;-72
2022/11/02 07:58:44;;;;;;;32.15;14.75;;;;;;;;;;1708434;82;21020;-73
2022/11/02 08:01:11;;;;;;;29.85;16.12;;;;;;;;;;1728354;83;20989;-73
2022/11/02 08:03:37;;;;;;;25.15;14.10;;;;;;;;;;1731041;82;21103;-73
2022/11/02 08:06:04;;;;;;;25.75;15.00;;;;;;;;;;1702686;83;21550;-73
2022/11/02 08:08:30;;;;;;;26.07;15.63;;;;;;;;;;1727613;81;21056;-73
2022/11/02 08:10:58;;;;;;;26.15;14.15;;;;;;;;;;1734015;81;21059;-74
2022/11/02 08:13:24;;;;;;;26.68;13.15;;;;;;;;;;1727244;82;22083;-73
2022/11/02 08:15:51;;;;;;;27.62;13.70;;;;;;;;;;1745473;82;21063;-73
2022/11/02 08:18:19;;;;;;;29.50;14.68;;;;;;;;;;1726822;81;21525;-73
2022/11/02 08:20:47;;;;;;;31.90;15.78;;;;;;;;;;1732714;82;21014;-74
2022/11/02 08:23:14;;;;;;;25.90;13.35;;;;;;;;;;1722402;82;21485;-75
2022/11/02 08:25:42;;;;;;;26.15;13.75;;;;;;;;;;1714533;83;21014;-74
2022/11/02 08:28:09;;;;;;;23.35;12.63;;;;;;;;;;1707774;82;21048;-73
2022/11/02 08:30:37;;;;;;;27.77;14.23;;;;;;;;;;1714858;82;21658;-75
2022/11/02 08:33:04;;;;;;;31.05;15.55;;;;;;;;;;1709188;82;21053;-75
2022/11/02 08:35:30;;;;;;;26.35;13.72;;;;;;;;;;1716756;82;21001;-75
2022/11/02 08:37:56;;;;;;;24.37;13.20;;;;;;;;;;1714919;82;21062;-73
2022/11/02 08:40:23;;;;;;;28.52;13.18;;;;;;;;;;1698115;82;21056;-74
2022/11/02 08:42:49;;;;;;;29.65;14.63;;;;;;;;;;1714183;82;21527;-73
2022/11/02 08:45:16;;;;;;;28.60;13.65;;;;;;;;;;1720648;82;21003;-72
2022/11/02 08:47:43;;;;;;;28.70;13.58;;;;;;;;;;1694058;82;21560;-73
2022/11/02 08:50:09;;;;;;;24.92;13.18;;;;;;;;;;1705960;82;20969;-73
2022/11/02 08:52:36;;;;;;;22.67;11.90;;;;;;;;;;1716920;82;21479;-74
2022/11/02 08:55:02;;;;;;;22.98;13.30;;;;;;;;;;1711557;82;20994;-73
2022/11/02 08:57:28;;;;;;;27.58;14.58;;;;;;;;;;1719102;82;21087;-74
2022/11/02 08:59:55;;;;;;;29.48;14.58;;;;;;;;;;1746150;82;21020;-75
2022/11/02 09:02:22;;;;;;;27.13;14.30;;;;;;;;;;1736767;82;21013;-74
2022/11/02 09:04:48;;;;;;;26.23;14.43;;;;;;;;;;1721694;82;21536;-74
2022/11/02 09:07:14;;;;;;;25.97;13.95;;;;;;;;;;1699609;82;21045;-71
2022/11/02 09:09:41;;;;;;;22.07;12.10;;;;;;;;;;1683322;85;21159;-74
2022/11/02 09:12:07;;;;;;;26.75;13.25;;;;;;;;;;1706507;82;21026;-75
2022/11/02 09:14:33;;;;;;;23.02;12.63;;;;;;;;;;1716980;82;21020;-74
2022/11/02 09:16:59;;;;;;;21.73;13.08;;;;;;;;;;1715692;82;21566;-75
2022/11/02 09:19:25;;;;;;;24.27;12.53;;;;;;;;;;1714526;82;21024;-74
2022/11/02 09:21:51;;;;;;;24.27;13.53;;;;;;;;;;1722168;82;20991;-75
2022/11/02 09:24:17;;;;;;;27.07;15.28;;;;;;;;;;1712526;83;21084;-75
2022/11/02 09:26:43;;;;;;;27.90;14.68;;;;;;;;;;1715936;82;21032;-75
2022/11/02 09:29:09;;;;;;;25.52;12.65;;;;;;;;;;1718566;82;20980;-76
2022/11/02 09:31:36;;;;;;;28.55;15.18;;;;;;;;;;1687361;82;21060;-76
2022/11/02 09:34:02;;;;;;;28.25;14.68;;;;;;;;;;1712054;82;21009;-76
2022/11/02 09:36:29;;;;;;;27.70;13.90;;;;;;;;;;1719393;82;21104;-73
2022/11/02 09:38:55;;;;;;;26.45;15.10;;;;;;;;;;1732494;82;21116;-75
2022/11/02 09:41:39;;;;;;;28.38;14.75;;;;;;;;;;1728234;82;21528;-75
2022/11/02 09:44:07;;;;;;;27.42;14.15;;;;;;;;;;1713415;82;22169;-76
2022/11/02 09:46:37;;;;;;;27.90;14.60;;;;;;;;;;1716861;82;20989;-76
2022/11/02 09:49:04;;;;;;;26.27;15.80;;;;;;;;;;1708727;82;21075;-76
2022/11/02 09:51:35;;;;;;;26.93;15.10;;;;;;;;;;1712159;82;21056;-74
2022/11/02 09:54:19;;;;;;;28.07;15.53;;;;;;;;;;1726105;82;20997;-76
2022/11/02 09:56:45;;;;;;;32.17;16.77;;;;;;;;;;1714127;82;21075;-76
2022/11/02 09:59:13;;;;;;;30.92;14.73;;;;;;;;;;1713793;82;21064;-74
2022/11/02 10:01:57;;;;;;;24.10;13.98;;;;;;;;;;1711559;82;21547;-75
2022/11/02 10:18:55;;;;;;;26.23;16.20;;;;;;;;;;1803579;79;22955;-71
2022/11/02 10:21:26;;;;;;;28.00;16.12;;;;;;;;;;1765385;80;21048;-71
2022/11/02 10:23:53;;;;;;;24.40;13.98;;;;;;;;;;1763211;80;21000;-70
2022/11/02 10:26:27;;;;;;;26.87;14.78;;;;;;;;;;1761840;80;20992;-69
2022/11/02 10:28:59;;;;;;;29.80;14.90;;;;;;;;;;1760400;80;21085;-70
2022/11/02 10:31:27;;;;;;;27.62;14.35;;;;;;;;;;1744844;80;21087;-69
2022/11/02 10:33:53;;;;;;;26.27;15.88;;;;;;;;;;1754208;80;21126;-71
2022/11/02 10:36:24;;;;;;;30.00;16.10;;;;;;;;;;1757111;80;21003;-69
2022/11/02 10:38:52;;;;;;;24.52;14.50;;;;;;;;;;1757781;80;21063;-69
2022/11/02 10:41:23;;;;;;;27.90;16.17;;;;;;;;;;1753339;80;22418;-71
2022/11/02 10:43:55;;;;;;;26.70;15.43;;;;;;;;;;1758130;80;21012;-69
2022/11/02 10:46:26;;;;;;;27.45;15.35;;;;;;;;;;1760085;80;21055;-70
2022/11/02 10:49:10;;;;;;;25.25;14.35;;;;;;;;;;1751994;80;21032;-70
2022/11/02 10:51:36;;;;;;;24.75;14.28;;;;;;;;;;1764756;80;21011;-70
2022/11/02 10:54:04;;;;;;;27.80;15.43;;;;;;;;;;1759129;80;21566;-71
2022/11/02 10:56:30;;;;;;;25.45;14.98;;;;;;;;;;1757314;80;21052;-71
2022/11/02 10:59:04;;;;;;;27.60;15.13;;;;;;;;;;1759476;80;21013;-70
2022/11/02 11:04:27;;;;;;;22.55;14.30;;;;;;;;;;1727544;79;21739;-70
2022/11/02 11:06:53;;;;;;;23.55;14.47;;;;;;;;;;1726839;82;21024;-70
2022/11/02 11:09:30;;;;;;;27.35;15.70;;;;;;;;;;1717615;82;21254;-72
2022/11/02 11:11:58;;;;;;;26.87;15.55;;;;;;;;;;1733945;82;21010;-71
2022/11/02 11:14:24;;;;;;;26.70;14.53;;;;;;;;;;1709339;82;21617;-73
2022/11/02 11:16:52;;;;;;;22.27;12.58;;;;;;;;;;1718821;82;21075;-71
2022/11/02 11:19:20;;;;;;;21.35;11.85;;;;;;;;;;1741359;81;21056;-72
2022/11/02 11:21:46;;;;;;;19.87;11.75;;;;;;;;;;1720285;81;21058;-70
2022/11/02 11:24:22;;;;;;;22.25;11.63;;;;;;;;;;1735129;81;21127;-71
2022/11/02 11:27:09;;;;;;;19.17;11.22;;;;;;;;;;1734816;82;21109;-72
2022/11/02 11:29:37;;;;;;;16.15;10.18;;;;;;;;;;1736275;82;21016;-69
2022/11/02 11:32:06;;;;;;;19.87;11.12;;;;;;;;;;1734946;81;21099;-71
2022/11/02 11:34:32;;;;;;;18.92;10.68;;;;;;;;;;1731714;81;21019;-73
2022/11/02 11:37:06;;;;;;;21.85;11.57;;;;;;;;;;1729544;82;21098;-70
2022/11/02 11:39:33;;;;;;;23.10;12.55;;;;;;;;;;1733681;81;21095;-71
2022/11/02 11:41:59;;;;;;;19.60;11.35;;;;;;;;;;1730717;81;21047;-70
2022/11/02 11:44:25;;;;;;;19.85;11.48;;;;;;;;;;1718026;82;21075;-71
2022/11/02 11:46:53;;;;;;;22.37;12.33;;;;;;;;;;1734841;81;21023;-71
2022/11/02 11:49:27;;;;;;;19.02;11.65;;;;;;;;;;1736104;81;20978;-71
2022/11/02 11:51:53;;;;;;;17.77;10.95;;;;;;;;;;1704331;83;21042;-70
2022/11/02 11:54:21;;;;;;;22.17;12.10;;;;;;;;;;1735796;82;21054;-70
2022/11/02 11:56:50;;;;;;;24.07;11.78;;;;;;;;;;1732737;82;21041;-70
2022/11/02 11:59:18;;;;;;;24.98;13.35;;;;;;;;;;1729467;82;21004;-70
2022/11/02 12:01:44;;;;;;;22.48;13.00;;;;;;;;;;1742768;81;21008;-71
2022/11/02 12:04:09;;;;;;;22.07;12.43;;;;;;;;;;1761043;79;21032;-71
2022/11/02 12:06:44;;;;;;;21.35;11.43;;;;;;;;;;1766352;79;21049;-71
2022/11/02 12:09:13;;;;;;;20.62;10.75;;;;;;;;;;1767777;79;21013;-70
2022/11/02 12:12:01;;;;;;;18.98;11.03;;;;;;;;;;1769554;79;21329;-70
2022/11/02 12:14:35;;;;;;;19.87;11.28;;;;;;;;;;1768602;79;21016;-69
2022/11/02 12:17:06;;;;;;;21.05;11.40;;;;;;;;;;1765066;79;21091;-70
2022/11/02 12:19:46;;;;;;;21.52;10.95;;;;;;;;;;1767502;79;21063;-70
2022/11/02 12:22:17;;;;;;;19.65;10.80;;;;;;;;;;1762965;80;21031;-69
2022/11/02 12:24:46;;;;;;;19.62;10.50;;;;;;;;;;1761580;81;21055;-70
2022/11/02 12:27:20;;;;;;;18.95;11.25;;;;;;;;;;1768270;80;21009;-68
2022/11/02 12:29:54;;;;;;;18.77;10.82;;;;;;;;;;1766240;81;21038;-68
2022/11/02 12:32:31;;;;;;;21.93;10.82;;;;;;;;;;1768238;79;21059;-70
2022/11/02 12:35:14;;;;;;;22.75;10.95;;;;;;;;;;1771670;79;21059;-69
2022/11/02 12:37:41;;;;;;;;;;;;;;;;;;1763041;79;22387;-69
2022/11/02 12:40:10;;;;;;;16.25;9.35;;;;;;;;;;1756673;79;20446;-69
2022/11/02 12:42:42;;;;;;;13.78;8.80;;;;;;;;;;1744498;80;21550;-68
2022/11/02 12:45:16;;;;;;;16.45;9.33;;;;;;;;;;1699933;83;21098;-68
2022/11/02 12:47:46;;;;;;;15.40;9.45;;;;;;;;;;1701900;83;21108;-69
2022/11/02 12:50:17;;;;;;;19.23;9.65;;;;;;;;;;1716359;82;21014;-69
2022/11/02 12:52:50;;;;;;;17.67;9.93;;;;;;;;;;1725043;82;21539;-68
2022/11/02 12:55:18;;;;;;;19.12;9.85;;;;;;;;;;1747098;82;21028;-69
2022/11/02 12:57:44;;;;;;;20.15;9.73;;;;;;;;;;1723522;82;21081;-71
2022/11/02 13:00:19;;;;;;;21.62;10.35;;;;;;;;;;1733617;80;21569;-70
2022/11/02 13:02:47;;;;;;;18.15;10.15;;;;;;;;;;1753332;80;21087;-69
2022/11/02 13:05:16;;;;;;;17.62;11.22;;;;;;;;;;1747876;81;21023;-69
2022/11/02 13:07:46;;;;;;;15.60;9.30;;;;;;;;;;1738135;81;20996;-69
2022/11/02 13:10:18;;;;;;;22.52;11.33;;;;;;;;;;1748430;81;21555;-69
2022/11/02 13:12:50;;;;;;;19.57;10.90;;;;;;;;;;1767933;81;21140;-69
2022/11/02 13:15:18;;;;;;;21.95;10.80;;;;;;;;;;1760472;80;21094;-70
2022/11/02 13:17:45;;;;;;;18.37;9.83;;;;;;;;;;1743217;80;21043;-71
2022/11/02 13:20:14;;;;;;;17.17;9.98;;;;;;;;;;1735562;81;21087;-70
2022/11/02 13:22:41;;;;;;;22.82;11.35;;;;;;;;;;1748114;81;21048;-69
2022/11/02 13:25:18;;;;;;;17.25;10.63;;;;;;;;;;1766707;81;21800;-70
2022/11/02 13:27:52;;;;;;;18.40;10.25;;;;;;;;;;1764834;80;21044;-69
2022/11/02 13:30:18;;;;;;;19.07;9.10;;;;;;;;;;1762784;80;21039;-69
2022/11/02 13:32:47;;;;;;;19.85;9.88;;;;;;;;;;1755530;80;21005;-69
2022/11/02 13:35:24;;;;;;;21.73;13.32;;;;;;;;;;1764703;81;21086;-70
2022/11/02 13:37:52;;;;;;;20.15;11.43;;;;;;;;;;1702928;83;21047;-70
2022/11/02 13:40:21;;;;;;;18.30;9.88;;;;;;;;;;1729246;83;21006;-69
2022/11/02 13:43:04;;;;;;;16.35;9.28;;;;;;;;;;1756966;80;21007;-70
2022/11/02 13:45:32;;;;;;;18.27;9.83;;;;;;;;;;1699917;82;21072;-68
2022/11/02 13:48:09;;;;;;;13.78;8.40;;;;;;;;;;1745757;81;21004;-70
2022/11/02 13:50:37;;;;;;;16.05;9.10;;;;;;;;;;1768549;79;21024;-68
2022/11/02 13:53:04;;;;;;;15.70;8.50;;;;;;;;;;1768174;81;21598;-68
2022/11/02 13:55:46;;;;;;;16.12;8.48;;;;;;;;;;1759547;80;21007;-68
2022/11/02 13:58:15;;;;;;;18.12;9.03;;;;;;;;;;1767479;80;21118;-69
2022/11/02 14:00:44;;;;;;;12.85;7.92;;;;;;;;;;1766294;80;21065;-71
2022/11/02 14:03:12;;;;;;;15.55;8.83;;;;;;;;;;1777957;80;21097;-70
2022/11/02 14:05:43;;;;;;;15.58;8.48;;;;;;;;;;1764754;80;20972;-68
2022/11/02 14:08:10;;;;;;;16.42;8.75;;;;;;;;;;1760957;79;21016;-69
2022/11/02 14:10:37;;;;;;;18.45;9.25;;;;;;;;;;1767276;80;21754;-69
2022/11/02 14:13:04;;;;;;;21.48;10.40;;;;;;;;;;1753091;79;21112;-71
2022/11/02 14:15:32;;;;;;;19.75;9.25;;;;;;;;;;1759687;80;21011;-70
2022/11/02 14:18:03;;;;;;;20.05;10.00;;;;;;;;;;1766393;81;21747;-71
2022/11/02 14:20:37;;;;;;;18.52;10.93;;;;;;;;;;1763921;79;21415;-70
2022/11/02 14:23:17;;;;;;;17.65;9.45;;;;;;;;;;1767119;80;21001;-69
2022/11/02 14:25:47;;;;;;;17.48;10.23;;;;;;;;;;1762906;80;21537;-69
2022/11/02 14:28:28;;;;;;;21.17;10.50;;;;;;;;;;1765533;81;20977;-69
2022/11/02 14:30:57;;;;;;;23.38;10.68;;;;;;;;;;1765885;81;20988;-69
2022/11/02 14:33:28;;;;;;;25.80;11.45;;;;;;;;;;1765067;81;21070;-70
2022/11/02 14:35:55;;;;;;;24.52;11.30;;;;;;;;;;1762800;80;21531;-70
2022/11/02 14:38:39;;;;;;;21.00;10.68;;;;;;;;;;1766162;80;21547;-67
2022/11/02 14:41:13;;;;;;;19.82;11.10;;;;;;;;;;1766781;81;21053;-68
2022/11/02 14:43:39;;;;;;;;;;;;;;;;;;1766081;80;21027;-68
2022/11/02 14:46:16;;;;;;;21.15;11.18;;;;;;;;;;1762821;80;20815;-72
2022/11/02 14:48:46;;;;;;;23.45;11.70;;;;;;;;;;1759037;81;21078;-72
2022/11/02 14:51:14;;;;;;;21.12;11.03;;;;;;;;;;1767205;80;21494;-70
2022/11/02 14:53:40;;;;;;;22.93;11.28;;;;;;;;;;1765524;80;21060;-71
2022/11/02 14:56:06;;;;;;;21.52;11.15;;;;;;;;;;1762456;80;21506;-69
2022/11/02 14:58:40;;;;;;;21.62;11.15;;;;;;;;;;1765125;80;21503;-70
2022/11/02 15:01:06;;;;;;;21.55;11.90;;;;;;;;;;1767208;80;21084;-71
2022/11/02 15:03:37;;;;;;;22.55;10.65;;;;;;;;;;1738552;80;21096;-70
2022/11/02 15:06:08;;;;;;;20.97;11.10;;;;;;;;;;1706263;82;21070;-70
2022/11/02 15:08:35;;;;;;;24.87;12.53;;;;;;;;;;1699918;83;21066;-70
2022/11/02 15:11:19;;;;;;;23.90;11.83;;;;;;;;;;1706934;83;21017;-71
2022/11/02 15:13:47;;;;;;;24.35;12.18;;;;;;;;;;1705910;83;21011;-71
2022/11/02 15:16:18;;;;;;;25.25;12.68;;;;;;;;;;1703965;84;21005;-71
2022/11/02 15:18:44;;;;;;;27.52;12.63;;;;;;;;;;1732917;81;21020;-70
2022/11/02 15:21:11;;;;;;;24.00;12.30;;;;;;;;;;1755757;80;21061;-70
2022/11/02 15:23:57;;;;;;;24.72;12.55;;;;;;;;;;1765125;81;21046;-70
2022/11/02 15:26:43;;;;;;;22.02;12.85;;;;;;;;;;1752592;80;21006;-69
2022/11/02 15:29:15;;;;;;;26.93;12.53;;;;;;;;;;1753970;82;21622;-70
2022/11/02 15:31:41;;;;;;;21.12;12.13;;;;;;;;;;1749892;80;21030;-69
2022/11/02 15:34:11;;;;;;;22.27;11.35;;;;;;;;;;1754347;82;21021;-70
2022/11/02 15:36:37;;;;;;;23.67;11.28;;;;;;;;;;1755223;80;21089;-68
2022/11/02 15:39:06;;;;;;;21.50;11.12;;;;;;;;;;1759944;80;21077;-70